Time;durP1;ratioP1;P1;durP2;ratioP2;P2;SDS_P1;SDS_P2;PMS_P1;PMS_P2;Temp;Humidity;BMP_temperature;BMP_pressure;BME280_temperature;BME280_humidity;BME280_pressure;Samples;Min_cycle;Max_cycle;Signal;HPM_P1;HPM_P2
2023/01/18 00:01:14;;;;;;;0.10;0.10;;;1.00;99.90;12.80;163505.00;;;;4990410;28;20213;-75
2023/01/18 00:03:42;;;;;;;0.10;0.10;;;1.00;99.90;12.80;163505.00;;;;4997572;28;20196;-75
2023/01/18 00:06:12;;;;;;;0.10;0.10;;;0.90;99.90;12.80;163505.00;;;;4996662;28;20235;-75
2023/01/18 00:08:41;;;;;;;0.10;0.10;;;0.80;99.90;12.80;163505.00;;;;4998543;28;20255;-76
2023/01/18 00:11:11;;;;;;;0.10;0.10;;;0.80;99.90;12.80;163505.00;;;;5029719;28;20302;-76
2023/01/18 00:13:39;;;;;;;0.10;0.10;;;0.70;99.90;12.80;163505.00;;;;5002782;28;20200;-76
2023/01/18 00:16:11;;;;;;;0.10;0.10;;;0.60;99.90;12.80;163505.00;;;;4994827;28;20227;-76
2023/01/18 00:18:40;;;;;;;0.10;0.10;;;0.60;99.90;12.80;163505.00;;;;4994310;28;20283;-76
2023/01/18 00:21:12;;;;;;;0.10;0.10;;;0.50;99.90;12.80;163505.00;;;;4977076;28;20228;-75
2023/01/18 00:23:40;;;;;;;0.10;0.10;;;0.50;99.90;12.80;163505.00;;;;4994018;28;20204;-75
2023/01/18 00:26:11;;;;;;;0.10;0.10;;;0.60;99.90;12.80;163505.00;;;;4994714;28;20658;-76
2023/01/18 00:28:39;;;;;;;0.10;0.10;;;0.60;99.90;12.80;163505.00;;;;4994303;28;20200;-76
2023/01/18 00:31:13;;;;;;;0.10;0.10;;;0.70;99.90;12.80;163505.00;;;;4994193;28;20615;-76
2023/01/18 00:33:43;;;;;;;0.10;0.10;;;0.70;99.90;12.80;163505.00;;;;4976106;28;20228;-76
2023/01/18 00:36:14;;;;;;;0.10;0.10;;;0.60;99.90;12.80;163505.00;;;;4977200;28;20292;-76
2023/01/18 00:38:43;;;;;;;0.10;0.10;;;0.50;99.90;12.80;163505.00;;;;4994399;28;20200;-76
2023/01/18 00:41:11;;;;;;;0.10;0.10;;;0.40;99.90;12.80;163505.00;;;;4994646;28;20700;-75
2023/01/18 00:43:38;;;;;;;0.10;0.10;;;0.50;99.90;12.80;163505.00;;;;4993777;28;20553;-75
2023/01/18 00:46:07;;;;;;;0.10;0.10;;;0.60;99.90;12.80;163505.00;;;;4991928;28;20228;-75
2023/01/18 00:48:37;;;;;;;0.10;0.10;;;0.70;99.90;12.80;163505.00;;;;4994177;28;20557;-76
2023/01/18 00:51:06;;;;;;;0.10;0.10;;;0.80;99.90;12.80;163505.00;;;;4994147;28;20200;-76
2023/01/18 00:53:36;;;;;;;0.10;0.10;;;0.90;99.90;12.80;163505.00;;;;4990929;28;20577;-76
2023/01/18 00:56:06;;;;;;;0.10;0.10;;;1.00;99.90;12.80;163505.00;;;;4993289;28;20286;-76
2023/01/18 00:58:36;;;;;;;0.10;0.10;;;1.00;99.90;12.80;163505.00;;;;4993827;28;20203;-76
2023/01/18 01:01:05;;;;;;;0.10;0.10;;;1.10;99.90;12.80;163505.00;;;;4993751;28;20220;-76
2023/01/18 01:06:43;;;;;;;0.10;0.10;;;1.20;99.90;12.80;163505.00;;;;4992917;28;20231;-76
2023/01/18 01:06:43;;;;;;;0.10;0.10;;;1.20;99.90;12.80;163505.00;;;;5003343;28;20207;-76
2023/01/18 01:09:15;;;;;;;0.10;0.10;;;1.20;99.90;12.80;163505.00;;;;4996146;28;20189;-76
2023/01/18 01:12:31;;;;;;;0.10;0.10;;;1.30;99.90;12.80;163505.00;;;;4977759;28;20953;-76
2023/01/18 01:28:26;;;;;;;0.10;0.10;;;1.20;99.90;12.80;163505.00;;;;4993766;28;20247;-75
2023/01/18 01:30:57;;;;;;;0.10;0.10;;;1.30;99.90;12.80;163505.00;;;;4994020;28;20203;-77
2023/01/18 01:33:25;;;;;;;0.10;0.10;;;1.40;99.90;12.80;163505.00;;;;4993340;28;20231;-77
2023/01/18 01:35:56;;;;;;;0.10;0.10;;;1.40;99.90;12.80;163505.00;;;;4993533;28;20705;-77
2023/01/18 01:38:24;;;;;;;0.10;0.10;;;1.50;99.90;12.80;163505.00;;;;4993204;28;20200;-77
2023/01/18 01:40:59;;;;;;;0.20;0.20;;;1.50;99.90;12.80;163505.00;;;;4993007;28;20216;-77
2023/01/18 01:43:43;;;;;;;0.10;0.10;;;1.50;99.90;12.80;163505.00;;;;4975451;28;20200;-76
2023/01/18 01:46:23;;;;;;;0.10;0.10;;;1.60;99.90;12.80;163505.00;;;;4992975;28;20208;-76
2023/01/18 01:49:01;;;;;;;0.10;0.10;;;1.70;99.90;12.80;163505.00;;;;4982457;28;20251;-76
2023/01/18 01:51:30;;;;;;;0.10;0.10;;;1.70;99.90;12.80;163505.00;;;;4975383;28;20633;-75
2023/01/18 01:54:06;;;;;;;0.08;0.08;;;1.70;99.90;12.80;163505.00;;;;4993028;28;20196;-76
2023/01/18 01:56:35;;;;;;;0.10;0.10;;;1.70;99.90;12.80;163505.00;;;;4992766;28;20635;-76
2023/01/18 01:59:05;;;;;;;0.10;0.10;;;1.70;99.90;12.80;163505.00;;;;4974890;28;20732;-76
2023/01/18 02:01:34;;;;;;;0.10;0.10;;;1.80;99.90;12.80;163505.00;;;;4992207;28;20232;-76
2023/01/18 02:04:03;;;;;;;0.10;0.10;;;1.80;99.90;12.80;163505.00;;;;4992329;28;20553;-76
2023/01/18 02:06:37;;;;;;;0.10;0.10;;;1.90;99.90;12.80;163505.00;;;;4992554;28;20620;-77
2023/01/18 02:09:09;;;;;;;0.10;0.10;;;1.90;99.90;12.80;163505.00;;;;4992620;28;20673;-77
2023/01/18 02:11:41;;;;;;;0.10;0.10;;;1.90;99.90;12.80;163505.00;;;;4992830;28;20196;-78
2023/01/18 02:14:14;;;;;;;0.10;0.10;;;1.90;99.90;12.80;163505.00;;;;4992204;28;20220;-77
2023/01/18 02:17:03;;;;;;;0.10;0.10;;;1.90;99.90;12.80;163505.00;;;;4991508;28;20220;-76
2023/01/18 02:20:23;;;;;;;0.10;0.10;;;1.90;99.90;12.80;163505.00;;;;4991280;28;20359;-76
2023/01/18 02:23:24;;;;;;;0.10;0.10;;;1.90;99.90;12.80;163505.00;;;;4965011;28;20259;-78
2023/01/18 02:26:34;;;;;;;0.10;0.10;;;1.90;99.90;12.80;163505.00;;;;5007210;28;20272;-77
2023/01/18 02:29:13;;;;;;;0.10;0.10;;;1.90;99.90;12.80;163505.00;;;;4991376;28;20201;-75
2023/01/18 02:31:56;;;;;;;0.10;0.10;;;1.90;99.90;12.80;163505.00;;;;4992113;28;20204;-76
2023/01/18 02:34:38;;;;;;;0.10;0.10;;;1.90;99.90;12.80;163505.00;;;;4991880;28;20231;-75
2023/01/18 02:37:18;;;;;;;0.10;0.10;;;1.90;99.90;12.80;163505.00;;;;4992486;28;20639;-76
2023/01/18 02:40:04;;;;;;;0.10;0.10;;;1.90;99.90;12.80;163505.00;;;;4991788;28;20188;-75
2023/01/18 02:48:22;;;;;;;0.10;0.10;;;1.90;99.90;12.80;163505.00;;;;4991487;28;20208;-76
2023/01/18 02:50:51;;;;;;;0.10;0.10;;;1.90;99.90;12.80;163505.00;;;;4972368;28;20197;-75
2023/01/18 02:53:19;;;;;;;0.10;0.10;;;1.90;99.90;12.80;163505.00;;;;4986686;28;20209;-75
2023/01/18 02:55:53;;;;;;;0.10;0.10;;;1.90;99.90;12.80;163505.00;;;;4989852;28;20220;-75
2023/01/18 02:58:29;;;;;;;0.10;0.10;;;1.90;99.90;12.80;163505.00;;;;4991209;28;20236;-75
2023/01/18 03:01:05;;;;;;;0.10;0.10;;;1.80;99.90;12.80;163505.00;;;;4989804;28;20192;-75
2023/01/18 03:03:34;;;;;;;0.10;0.10;;;1.70;99.90;12.80;163505.00;;;;4988365;28;20202;-76
2023/01/18 03:06:07;;;;;;;0.10;0.10;;;1.70;99.90;12.80;163505.00;;;;4991652;28;20216;-76
2023/01/18 03:08:42;;;;;;;0.10;0.10;;;1.70;99.90;12.80;163505.00;;;;4991543;28;20287;-76
2023/01/18 03:11:18;;;;;;;0.10;0.10;;;1.70;99.90;12.80;163505.00;;;;4991675;28;20195;-76
2023/01/18 03:14:01;;;;;;;0.10;0.10;;;1.70;99.90;12.80;163505.00;;;;4991195;28;20589;-76
2023/01/18 03:16:57;;;;;;;0.10;0.10;;;1.70;99.90;12.80;163505.00;;;;4991371;28;20616;-76
2023/01/18 03:20:05;;;;;;;0.10;0.10;;;1.70;99.90;12.80;163505.00;;;;4986044;28;20211;-76
2023/01/18 03:25:29;;;;;;;0.10;0.10;;;1.80;99.90;12.80;163505.00;;;;4986734;28;20606;-77
2023/01/18 03:33:46;;;;;;;0.10;0.10;;;1.80;99.90;12.80;163505.00;;;;4983897;28;20697;-77
2023/01/18 03:36:25;;;;;;;0.10;0.10;;;1.80;99.90;12.80;163505.00;;;;4995277;28;20191;-76
2023/01/18 03:39:00;;;;;;;0.10;0.10;;;1.90;99.90;12.80;163505.00;;;;4995028;28;20196;-77
2023/01/18 03:41:36;;;;;;;0.10;0.10;;;1.90;99.90;12.80;163505.00;;;;4994962;28;20214;-76
2023/01/18 03:44:11;;;;;;;0.10;0.10;;;2.00;99.90;12.80;163505.00;;;;4994598;28;20207;-76
2023/01/18 03:46:42;;;;;;;0.10;0.10;;;2.00;99.90;12.80;163505.00;;;;4995376;28;20214;-76
2023/01/18 03:49:13;;;;;;;0.10;0.10;;;2.00;99.90;12.80;163505.00;;;;4994593;28;20228;-76
2023/01/18 03:51:56;;;;;;;0.10;0.10;;;2.00;99.90;12.80;163505.00;;;;4995092;28;20267;-76
2023/01/18 03:54:35;;;;;;;0.10;0.10;;;2.00;99.90;12.80;163505.00;;;;4994568;28;20247;-76
2023/01/18 03:57:09;;;;;;;0.10;0.10;;;1.90;99.90;12.80;163505.00;;;;4994148;28;20208;-77
2023/01/18 03:59:39;;;;;;;0.10;0.10;;;1.90;99.90;12.80;163505.00;;;;4977926;28;20606;-77
2023/01/18 04:02:09;;;;;;;0.10;0.10;;;1.90;99.90;12.80;163505.00;;;;4994999;28;20263;-77
2023/01/18 04:04:38;;;;;;;0.10;0.10;;;1.80;99.90;12.80;163505.00;;;;4995584;28;20259;-75
2023/01/18 04:07:06;;;;;;;0.20;0.20;;;1.90;99.90;12.80;163505.00;;;;4996712;28;20205;-75
2023/01/18 04:09:34;;;;;;;0.10;0.10;;;1.90;99.90;12.80;163505.00;;;;4979299;28;20291;-75
2023/01/18 04:12:02;;;;;;;0.10;0.10;;;1.90;99.90;12.80;163505.00;;;;4996377;28;20240;-75
2023/01/18 04:14:30;;;;;;;0.10;0.10;;;1.80;99.90;12.80;163505.00;;;;4976636;28;20250;-76
2023/01/18 04:16:58;;;;;;;0.10;0.10;;;1.80;99.90;12.80;163505.00;;;;4994294;28;20335;-76
2023/01/18 04:19:27;;;;;;;0.10;0.10;;;1.80;99.90;12.80;163505.00;;;;4994625;28;20563;-74
2023/01/18 04:21:56;;;;;;;0.10;0.10;;;1.90;99.90;12.80;163505.00;;;;4994249;28;20239;-75
2023/01/18 04:24:24;;;;;;;0.10;0.10;;;1.90;99.90;12.80;163505.00;;;;4994431;28;20641;-74
2023/01/18 04:26:52;;;;;;;0.10;0.10;;;1.90;99.90;12.80;163505.00;;;;4994710;28;20196;-76
2023/01/18 04:29:20;;;;;;;0.10;0.10;;;2.00;99.90;12.80;163505.00;;;;4994178;28;20192;-75
2023/01/18 04:31:48;;;;;;;0.10;0.10;;;1.90;99.90;12.80;163505.00;;;;4993613;28;20251;-76
2023/01/18 04:34:16;;;;;;;0.10;0.10;;;1.90;99.90;12.80;163505.00;;;;4993944;28;20228;-76
2023/01/18 04:36:43;;;;;;;0.10;0.10;;;1.90;99.90;12.80;163505.00;;;;4994577;28;20196;-76
2023/01/18 04:39:14;;;;;;;0.10;0.10;;;1.80;99.90;12.80;163505.00;;;;4976358;28;20545;-76
2023/01/18 04:41:42;;;;;;;0.10;0.10;;;1.80;99.90;12.80;163505.00;;;;4994083;28;20247;-76
2023/01/18 04:44:10;;;;;;;0.10;0.10;;;1.80;99.90;12.80;163505.00;;;;4993954;28;20636;-76
2023/01/18 04:46:38;;;;;;;0.10;0.10;;;1.90;99.90;12.80;163505.00;;;;4992944;28;20189;-76
2023/01/18 04:49:10;;;;;;;0.10;0.10;;;1.80;99.90;12.80;163505.00;;;;4993588;28;20196;-75
2023/01/18 04:51:39;;;;;;;0.10;0.10;;;1.80;99.90;12.80;163505.00;;;;4976562;28;20266;-77
2023/01/18 04:54:08;;;;;;;0.10;0.10;;;1.80;99.90;12.80;163505.00;;;;5008232;23;20260;31
2023/01/18 04:56:38;;;;;;;0.10;0.10;;;1.70;99.90;12.80;163505.00;;;;4909151;29;20231;-75
2023/01/18 04:59:06;;;;;;;0.10;0.10;;;1.80;99.90;12.80;163505.00;;;;4899431;29;20203;-75
2023/01/18 05:01:35;;;;;;;0.10;0.10;;;1.80;99.90;12.80;163505.00;;;;4911390;29;20233;-75
2023/01/18 05:04:03;;;;;;;0.10;0.10;;;1.80;99.90;12.80;163505.00;;;;4903459;29;20756;-75
2023/01/18 05:06:31;;;;;;;0.10;0.10;;;1.80;99.90;12.80;163505.00;;;;4897856;29;20204;-75
2023/01/18 05:08:59;;;;;;;0.10;0.10;;;1.90;99.90;12.80;163505.00;;;;4897490;29;20261;-75
2023/01/18 05:11:30;;;;;;;0.10;0.10;;;1.90;99.90;12.80;163505.00;;;;4898887;29;20204;-75
2023/01/18 05:13:59;;;;;;;0.10;0.10;;;1.80;99.90;12.80;163505.00;;;;4897115;29;20734;-76
2023/01/18 05:16:27;;;;;;;0.03;0.03;;;1.80;99.90;12.80;163505.00;;;;4897583;29;20291;-76
2023/01/18 05:18:55;;;;;;;0.10;0.10;;;1.70;99.90;12.80;163505.00;;;;4911593;29;20211;-76
2023/01/18 05:21:23;;;;;;;0.10;0.10;;;1.80;99.90;12.80;163505.00;;;;4918013;29;20236;-76
2023/01/18 05:23:51;;;;;;;0.10;0.10;;;1.80;99.90;12.80;163505.00;;;;4916945;29;20635;-76
2023/01/18 05:26:22;;;;;;;0.10;0.10;;;1.90;99.90;12.80;163505.00;;;;4912807;29;20249;-76
2023/01/18 05:28:56;;;;;;;0.10;0.10;;;1.90;99.90;12.80;163505.00;;;;4906464;29;20203;-76
2023/01/18 05:31:25;;;;;;;0.10;0.10;;;1.90;99.90;12.80;163505.00;;;;4897714;29;20665;-75
2023/01/18 05:33:55;;;;;;;0.10;0.10;;;1.90;99.90;12.80;163505.00;;;;4897897;29;20214;-76
2023/01/18 05:36:23;;;;;;;0.10;0.10;;;1.90;99.90;12.80;163505.00;;;;4880935;29;20216;-75
2023/01/18 05:38:51;;;;;;;0.10;0.10;;;2.00;99.90;12.80;163505.00;;;;4897949;29;20200;-75
2023/01/18 05:41:19;;;;;;;0.10;0.10;;;1.90;99.90;12.80;163505.00;;;;4897476;29;20260;-75
2023/01/18 05:43:48;;;;;;;0.10;0.10;;;1.90;99.90;12.80;163505.00;;;;4897202;29;20705;-75
2023/01/18 05:46:16;;;;;;;0.10;0.10;;;1.90;99.90;12.80;163505.00;;;;4897413;29;20324;-75
2023/01/18 05:48:45;;;;;;;0.10;0.10;;;1.90;99.90;12.80;163505.00;;;;4897702;29;20570;-75
2023/01/18 05:51:14;;;;;;;0.10;0.10;;;2.00;99.90;12.80;163505.00;;;;4898072;29;20204;-76
2023/01/18 05:53:42;;;;;;;0.10;0.10;;;2.10;99.90;12.80;163505.00;;;;4897829;29;20622;-76
2023/01/18 05:56:11;;;;;;;0.10;0.10;;;2.00;99.90;12.80;163505.00;;;;4897162;29;20759;-76
2023/01/18 05:58:39;;;;;;;0.10;0.10;;;2.00;99.90;12.80;163505.00;;;;4897689;29;20208;-75
2023/01/18 06:01:08;;;;;;;0.10;0.10;;;2.10;99.90;12.80;163505.00;;;;4894197;29;20658;-76
2023/01/18 06:03:36;;;;;;;0.10;0.10;;;2.00;99.90;12.80;163505.00;;;;4881376;29;20216;-76
2023/01/18 06:06:07;;;;;;;0.10;0.10;;;2.00;99.90;12.80;163505.00;;;;4899178;29;20650;-76
2023/01/18 06:08:35;;;;;;;0.10;0.10;;;2.00;99.90;12.80;163505.00;;;;4898364;29;20231;-76
2023/01/18 06:11:05;;;;;;;0.10;0.10;;;1.90;99.90;12.80;163505.00;;;;4882374;29;20204;-76
2023/01/18 06:13:33;;;;;;;0.10;0.10;;;2.00;99.90;12.80;163505.00;;;;4880773;29;20231;-76
2023/01/18 06:16:01;;;;;;;0.10;0.10;;;1.90;99.90;12.80;163505.00;;;;4897967;29;20593;-76
2023/01/18 06:18:32;;;;;;;0.10;0.10;;;1.90;99.90;12.80;163505.00;;;;4881537;29;20622;-77
2023/01/18 06:21:03;;;;;;;0.10;0.10;;;1.80;99.90;12.80;163505.00;;;;4897166;29;20203;-75
2023/01/18 06:23:34;;;;;;;0.10;0.10;;;1.80;99.90;12.80;163505.00;;;;4897605;29;20231;-74
2023/01/18 06:26:02;;;;;;;0.10;0.10;;;2.00;99.90;12.80;163505.00;;;;4896552;29;20290;-74
2023/01/18 06:28:30;;;;;;;0.10;0.10;;;1.90;99.90;12.80;163505.00;;;;4896521;29;20196;-75
2023/01/18 06:30:59;;;;;;;0.10;0.10;;;1.80;99.90;12.80;163505.00;;;;4896604;29;20256;-75
2023/01/18 06:33:27;;;;;;;0.10;0.10;;;1.80;99.90;12.80;163505.00;;;;4896301;29;20232;-75
2023/01/18 06:35:55;;;;;;;0.10;0.10;;;1.80;99.90;12.80;163505.00;;;;4896463;29;20212;-75
2023/01/18 06:38:23;;;;;;;0.10;0.10;;;1.80;99.90;12.80;163505.00;;;;4896542;29;20607;-75
2023/01/18 06:40:52;;;;;;;0.20;0.20;;;1.80;99.90;12.80;163505.00;;;;4896699;29;20203;-75
2023/01/18 06:43:21;;;;;;;0.10;0.10;;;1.70;99.90;12.80;163505.00;;;;4879590;29;20618;-75
2023/01/18 06:45:54;;;;;;;0.20;0.20;;;1.70;99.90;12.80;163505.00;;;;4895952;29;20219;-75
2023/01/18 06:48:23;;;;;;;0.10;0.10;;;1.70;99.90;12.80;163505.00;;;;4896831;29;20614;-75
2023/01/18 06:50:53;;;;;;;0.10;0.10;;;1.70;99.90;12.80;163505.00;;;;4880246;29;20200;-75
2023/01/18 06:53:21;;;;;;;0.10;0.10;;;1.80;99.90;12.80;163505.00;;;;4896793;29;20231;-75
2023/01/18 06:55:56;;;;;;;0.10;0.10;;;1.80;99.90;12.80;163505.00;;;;4896473;29;20254;-75
2023/01/18 06:58:25;;;;;;;0.10;0.10;;;1.80;99.90;12.80;163505.00;;;;4896471;29;20263;-75
2023/01/18 07:00:55;;;;;;;0.10;0.10;;;1.80;99.90;12.80;163505.00;;;;4896020;29;20219;-75
2023/01/18 07:03:24;;;;;;;0.10;0.10;;;1.80;99.90;12.80;163505.00;;;;4879290;29;20203;-75
2023/01/18 07:05:53;;;;;;;0.10;0.10;;;1.80;99.90;12.80;163505.00;;;;4895862;29;20224;-75
2023/01/18 07:08:22;;;;;;;0.10;0.10;;;1.70;99.90;12.80;163505.00;;;;4895961;29;20786;-75
2023/01/18 07:10:51;;;;;;;0.10;0.10;;;1.70;99.90;12.80;163505.00;;;;4895283;29;20279;-75
2023/01/18 07:13:21;;;;;;;0.10;0.10;;;1.70;99.90;12.80;163505.00;;;;4896117;29;20684;-75
2023/01/18 07:15:55;;;;;;;0.10;0.10;;;1.60;99.90;12.80;163505.00;;;;4909528;29;20223;-75
2023/01/18 07:18:24;;;;;;;0.10;0.10;;;1.60;99.90;12.80;163505.00;;;;4901789;29;20199;-75
2023/01/18 07:21:00;;;;;;;0.10;0.10;;;1.50;99.90;12.80;163505.00;;;;4895674;29;20195;-75
2023/01/18 07:23:30;;;;;;;0.10;0.10;;;1.50;99.90;12.80;163505.00;;;;4907177;29;20211;-75
2023/01/18 07:26:01;;;;;;;0.10;0.10;;;1.50;99.90;12.80;163505.00;;;;4878989;29;20228;-75
2023/01/18 07:28:32;;;;;;;0.10;0.10;;;1.50;99.90;12.80;163505.00;;;;4904684;29;20574;-75
2023/01/18 07:31:02;;;;;;;0.10;0.10;;;1.50;99.90;12.80;163505.00;;;;4897626;29;20210;-75
2023/01/18 07:33:30;;;;;;;0.10;0.10;;;1.50;99.90;12.80;163505.00;;;;4896096;29;20218;-75
2023/01/18 07:35:58;;;;;;;0.10;0.10;;;1.50;99.90;12.80;163505.00;;;;4895207;29;20227;-75
2023/01/18 07:38:27;;;;;;;0.10;0.10;;;1.50;99.90;12.80;163505.00;;;;4895747;29;20196;-75
2023/01/18 07:41:01;;;;;;;0.10;0.10;;;1.60;99.90;12.80;163505.00;;;;4895918;29;20191;-75
2023/01/18 07:43:32;;;;;;;0.10;0.10;;;1.60;99.90;12.80;163505.00;;;;4879285;29;20203;-75
2023/01/18 07:46:02;;;;;;;0.10;0.10;;;1.60;99.90;12.80;163505.00;;;;4895814;29;20231;-75
2023/01/18 07:48:31;;;;;;;0.17;0.17;;;1.60;99.90;12.80;163505.00;;;;4895791;29;20196;-75
2023/01/18 07:51:01;;;;;;;0.10;0.10;;;1.50;99.90;12.80;163505.00;;;;4895711;29;20207;-75
2023/01/18 07:53:31;;;;;;;0.10;0.10;;;1.60;99.90;12.80;163505.00;;;;4895897;29;20195;-76
2023/01/18 07:56:00;;;;;;;0.15;0.15;;;1.50;99.90;12.80;163505.00;;;;4895478;29;20227;-75
2023/01/18 07:58:29;;;;;;;0.10;0.10;;;1.50;99.90;12.80;163505.00;;;;4896543;29;20327;-75
2023/01/18 08:01:04;;;;;;;0.10;0.10;;;1.40;99.90;12.80;163505.00;;;;4895832;29;20200;-75
2023/01/18 08:03:33;;;;;;;0.10;0.10;;;1.40;99.90;12.80;163505.00;;;;4896094;29;20196;-75
2023/01/18 08:06:03;;;;;;;0.10;0.10;;;1.40;99.90;12.80;163505.00;;;;4879042;29;20235;-75
2023/01/18 08:08:31;;;;;;;0.10;0.10;;;1.40;99.90;12.80;163505.00;;;;4896154;29;20945;-75
2023/01/18 08:11:02;;;;;;;0.10;0.10;;;1.40;99.90;12.80;163505.00;;;;4895530;29;20279;-75
2023/01/18 08:13:30;;;;;;;0.10;0.10;;;1.40;99.90;12.80;163505.00;;;;4896258;29;20199;-75
2023/01/18 08:16:01;;;;;;;0.10;0.10;;;1.20;99.90;12.80;163505.00;;;;4895756;29;20225;-75
2023/01/18 08:18:31;;;;;;;0.10;0.10;;;1.30;99.90;12.80;163505.00;;;;4898980;29;20666;-75
2023/01/18 08:20:59;;;;;;;0.03;0.03;;;1.30;99.90;12.80;163505.00;;;;4899049;29;20750;-75
2023/01/18 08:23:27;;;;;;;0.10;0.10;;;1.30;99.90;12.80;163505.00;;;;4899123;29;20230;-75
2023/01/18 08:25:59;;;;;;;0.10;0.10;;;1.30;99.90;12.80;163505.00;;;;4912969;29;20249;-75
2023/01/18 08:28:27;;;;;;;0.10;0.10;;;1.20;99.90;12.80;163505.00;;;;4898945;29;20216;-75
2023/01/18 08:31:10;;;;;;;0.10;0.10;;;1.30;99.90;12.80;163505.00;;;;4898768;29;20235;-75
2023/01/18 08:33:44;;;;;;;0.10;0.10;;;1.20;99.90;12.80;163505.00;;;;4898986;29;20217;-75
2023/01/18 08:36:14;;;;;;;0.10;0.10;;;1.30;99.90;12.80;163505.00;;;;4898947;29;20255;-75
2023/01/18 08:38:46;;;;;;;0.10;0.10;;;1.30;99.90;12.80;163505.00;;;;4898614;29;20610;-75
2023/01/18 08:41:14;;;;;;;0.10;0.10;;;1.50;99.90;12.80;163505.00;;;;4898664;29;20200;-75
2023/01/18 08:43:44;;;;;;;0.10;0.10;;;1.40;99.90;12.80;163505.00;;;;4899162;29;20594;-75
2023/01/18 08:46:11;;;;;;;0.10;0.10;;;1.30;99.90;12.80;163505.00;;;;4899308;29;20284;-75
2023/01/18 08:48:42;;;;;;;0.10;0.10;;;1.30;99.90;12.80;163505.00;;;;4898552;29;20192;-75
2023/01/18 08:51:10;;;;;;;0.10;0.10;;;1.40;99.90;12.80;163505.00;;;;4898905;29;20192;-75
2023/01/18 08:53:39;;;;;;;0.10;0.10;;;1.50;99.90;12.80;163505.00;;;;4898664;29;20569;-75
2023/01/18 08:56:08;;;;;;;0.10;0.10;;;1.50;99.90;12.80;163505.00;;;;4898255;29;20231;-75
2023/01/18 08:58:36;;;;;;;0.10;0.10;;;1.60;99.90;12.80;163505.00;;;;4903312;29;20230;-75
2023/01/18 09:01:06;;;;;;;0.10;0.10;;;1.60;99.90;12.80;163505.00;;;;4917315;29;20618;-75
2023/01/18 09:03:35;;;;;;;0.10;0.10;;;1.60;99.90;12.80;163505.00;;;;4903013;29;20204;-75
2023/01/18 09:06:08;;;;;;;0.10;0.10;;;1.60;99.90;12.80;163505.00;;;;4898000;29;20287;-75
2023/01/18 09:08:39;;;;;;;0.20;0.20;;;1.60;99.90;12.80;163505.00;;;;4898327;29;20231;-75
2023/01/18 09:11:09;;;;;;;0.10;0.10;;;1.60;99.90;12.80;163505.00;;;;4896831;29;20219;-74
2023/01/18 09:13:40;;;;;;;0.10;0.10;;;1.70;99.90;12.80;163505.00;;;;4898353;29;20200;-74
2023/01/18 09:16:26;;;;;;;0.10;0.10;;;1.70;99.90;12.80;163505.00;;;;4898117;29;20223;-74
2023/01/18 09:18:55;;;;;;;0.10;0.10;;;1.80;99.90;12.80;163505.00;;;;4899687;29;20208;-74
2023/01/18 09:21:26;;;;;;;0.10;0.10;;;1.70;99.90;12.80;163505.00;;;;4901997;29;20211;-74
2023/01/18 09:23:54;;;;;;;0.10;0.10;;;1.80;99.90;12.80;163505.00;;;;4903955;29;20617;-75
2023/01/18 09:26:22;;;;;;;0.10;0.10;;;1.70;99.90;12.80;163505.00;;;;4897744;29;20224;-75
2023/01/18 09:28:52;;;;;;;0.15;0.15;;;1.70;99.90;12.80;163505.00;;;;4896861;29;20661;-75
2023/01/18 09:31:24;;;;;;;0.10;0.10;;;1.80;99.90;12.80;163505.00;;;;4897644;29;20206;-75
2023/01/18 09:33:52;;;;;;;0.10;0.10;;;1.80;99.90;12.80;163505.00;;;;4897898;29;20227;-74
2023/01/18 09:36:25;;;;;;;0.10;0.10;;;1.80;99.90;12.80;163505.00;;;;4898125;29;20303;-74
2023/01/18 09:38:55;;;;;;;0.10;0.10;;;1.70;99.90;12.80;163505.00;;;;4897288;29;20204;-74
2023/01/18 09:41:32;;;;;;;0.10;0.10;;;1.70;99.90;12.80;163505.00;;;;4897446;29;20565;-74
2023/01/18 09:44:07;;;;;;;0.10;0.10;;;1.70;99.90;12.80;163505.00;;;;4897462;29;20259;-74
2023/01/18 09:46:39;;;;;;;0.10;0.10;;;1.80;99.90;12.80;163505.00;;;;4897695;29;20251;-75
2023/01/18 09:49:16;;;;;;;0.10;0.10;;;1.90;99.90;12.80;163505.00;;;;4897203;29;20677;-74
2023/01/18 09:52:00;;;;;;;0.10;0.10;;;1.90;99.90;12.80;163505.00;;;;4897392;29;20203;-75
2023/01/18 09:54:44;;;;;;;0.10;0.10;;;1.90;99.90;12.80;163505.00;;;;4897397;29;20216;-74
2023/01/18 09:57:31;;;;;;;0.10;0.10;;;2.00;99.90;12.80;163505.00;;;;4897069;29;20287;-75
2023/01/18 10:00:03;;;;;;;0.10;0.10;;;2.00;99.90;12.80;163505.00;;;;4897124;29;20200;-74
2023/01/18 10:02:38;;;;;;;0.10;0.10;;;2.10;99.90;12.80;163505.00;;;;4897507;29;20203;-74
2023/01/18 10:05:13;;;;;;;0.10;0.10;;;2.10;99.90;12.80;163505.00;;;;4911387;29;20241;-74
2023/01/18 10:08:01;;;;;;;0.10;0.10;;;2.20;99.90;12.80;163505.00;;;;4897291;29;20196;-74
2023/01/18 10:10:36;;;;;;;0.10;0.10;;;2.10;99.90;12.80;163505.00;;;;4897286;29;20251;-74
2023/01/18 10:13:32;;;;;;;0.10;0.10;;;2.10;99.90;12.80;163505.00;;;;4896875;29;20195;-74
2023/01/18 10:16:02;;;;;;;0.10;0.10;;;2.10;99.90;12.80;163505.00;;;;4895252;29;20638;-75
2023/01/18 10:18:30;;;;;;;0.10;0.10;;;2.10;99.90;12.80;163505.00;;;;4895375;29;20204;-75
2023/01/18 10:21:06;;;;;;;0.10;0.10;;;2.20;99.90;12.80;163505.00;;;;4897023;29;20196;-74
2023/01/18 10:23:48;;;;;;;0.10;0.10;;;2.20;99.90;12.80;163505.00;;;;4896786;29;20199;-74
2023/01/18 10:26:28;;;;;;;0.10;0.10;;;2.20;99.90;12.80;163505.00;;;;4896503;29;20231;-75
2023/01/18 10:29:05;;;;;;;0.10;0.10;;;2.20;99.90;12.80;163505.00;;;;4896198;29;20196;-74
2023/01/18 10:31:51;;;;;;;0.10;0.10;;;2.20;99.90;12.80;163505.00;;;;4896548;29;20248;-75
2023/01/18 10:34:22;;;;;;;0.10;0.10;;;2.20;99.90;12.80;163505.00;;;;4896499;29;20613;-74
2023/01/18 10:36:54;;;;;;;0.10;0.10;;;2.30;99.90;12.80;163505.00;;;;4896198;29;20219;-74
2023/01/18 10:39:32;;;;;;;0.13;0.13;;;2.30;99.90;12.80;163505.00;;;;4896017;29;20256;-74
2023/01/18 10:42:05;;;;;;;0.10;0.10;;;2.40;99.90;12.80;163505.00;;;;4896688;29;20203;-74
2023/01/18 10:44:33;;;;;;;0.10;0.10;;;2.40;99.90;12.80;163505.00;;;;4896741;29;20251;-74
2023/01/18 10:47:02;;;;;;;0.10;0.10;;;2.50;99.90;12.80;163505.00;;;;4896383;29;20277;-74
2023/01/18 10:49:39;;;;;;;0.10;0.10;;;2.50;99.90;12.80;163505.00;;;;4898357;29;20203;-74
2023/01/18 10:52:26;;;;;;;0.10;0.10;;;2.50;99.90;12.80;163505.00;;;;4909460;29;20255;-74
2023/01/18 10:55:00;;;;;;;0.10;0.10;;;2.40;99.90;12.80;163505.00;;;;4933294;23;20256;-76
2023/01/18 10:57:32;;;;;;;0.10;0.10;;;2.40;99.90;12.80;163505.00;;;;4986569;28;20680;-76
2023/01/18 11:00:01;;;;;;;0.10;0.10;;;2.40;99.90;12.80;163505.00;;;;4971896;28;20255;-77
2023/01/18 11:02:38;;;;;;;0.10;0.10;;;2.40;99.90;12.80;163505.00;;;;4979302;28;20344;-77
2023/01/18 11:05:26;;;;;;;0.10;0.10;;;2.30;99.90;12.80;163505.00;;;;4997560;28;20306;-77
2023/01/18 11:08:10;;;;;;;0.10;0.10;;;2.30;99.90;12.80;163505.00;;;;4994529;28;20252;-77
2023/01/18 11:10:42;;;;;;;0.10;0.10;;;2.40;99.90;12.80;163505.00;;;;4992397;28;20193;-77
2023/01/18 11:13:27;;;;;;;0.10;0.10;;;2.40;99.90;12.80;163505.00;;;;4992474;28;20200;-77
2023/01/18 11:16:11;;;;;;;0.10;0.10;;;2.40;99.90;12.80;163505.00;;;;4992108;28;20220;-77
2023/01/18 11:18:57;;;;;;;0.10;0.10;;;2.30;99.90;12.80;163505.00;;;;4991724;28;20692;-77
2023/01/18 11:21:30;;;;;;;0.10;0.10;;;2.30;99.90;12.80;163505.00;;;;4991846;28;20200;-77
2023/01/18 11:24:05;;;;;;;0.10;0.10;;;2.30;99.90;12.80;163505.00;;;;4972503;28;20208;-77
2023/01/18 11:26:49;;;;;;;0.10;0.10;;;2.30;99.90;12.80;163505.00;;;;4978912;28;20227;-77
2023/01/18 11:29:17;;;;;;;0.10;0.10;;;2.30;99.90;12.80;163505.00;;;;4992409;28;20196;-77
2023/01/18 11:31:49;;;;;;;0.10;0.10;;;2.40;99.90;12.80;163505.00;;;;4992353;28;20197;-77
2023/01/18 11:34:26;;;;;;;0.10;0.10;;;2.40;99.90;12.80;163505.00;;;;4992552;28;20196;-77
2023/01/18 11:36:56;;;;;;;0.10;0.10;;;2.40;99.90;12.80;163505.00;;;;4992896;28;20227;-77
2023/01/18 11:39:31;;;;;;;0.10;0.10;;;2.30;99.90;12.80;163505.00;;;;4994892;28;20227;-78
2023/01/18 11:42:24;;;;;;;0.10;0.10;;;2.30;99.90;12.80;163505.00;;;;4995346;28;20192;-78
2023/01/18 11:45:05;;;;;;;0.10;0.10;;;2.40;99.90;12.80;163505.00;;;;4992555;28;20220;-78
2023/01/18 11:47:51;;;;;;;0.10;0.10;;;2.40;99.90;12.80;163505.00;;;;4993318;28;20226;-78